Glory Ocean — 9VDE7 — position and weather

sailwx.info

Track history (hours):
 
Tides and Currents Weather Stations Pressure Air Temp Water Temp Dewpoint Dewpoint Depression Visibility Wind Speed Wind Dir Waves Ship Positions

Glory Ocean

Last reported at 2017-Mar-22 00:23 UTC. Time now 2017-Mar-26 17:11 UTC.
Position N 39°25' W 009°50'.

Length 139 m; draft 6.3 m.

Type: Cargo ship. MMSI: 564700000.

Date/timePositionNaut miles runAvg speedWind from/ knotsBaromVisibWave heightAir tempDewpointWater temp
2017-Mar-22 00:23N 39°25' W 009°50'8 9.5
2017-Mar-21 23:33N 39°17' W 009°50'9 9.1
2017-Mar-21 22:33N 39°08' W 009°51'9 9.1
2017-Mar-21 21:33N 38°59' W 009°51'9 9.1
2017-Mar-21 20:33N 38°50' W 009°51'9 9.2
2017-Mar-21 19:33N 38°40' W 009°51'8 7.9
2017-Mar-21 18:33N 38°37' W 009°41'9 9.1
2017-Mar-21 17:33N 38°36' W 009°30'9 9.0
2017-Mar-21 16:33N 38°40' W 009°19'6 1.8
2017-Mar-21 13:04N 38°41' W 009°11'0 0.0
2017-Mar-21 11:19N 38°41' W 009°11'0 0.1
2017-Mar-21 09:31N 38°41' W 009°11'0 0.1
2017-Mar-21 08:31N 38°41' W 009°11'4 3.9
2017-Mar-21 07:33N 38°41' W 009°16'8 8.5
2017-Mar-21 06:33N 38°36' W 009°24'9 9.0
2017-Mar-21 05:33N 38°27' W 009°24'7 7.1
2017-Mar-21 04:33N 38°20' W 009°24'9 9.0
2017-Mar-21 03:33N 38°11' W 009°24'9 9.3
2017-Mar-21 02:33N 38°01' W 009°23'9 9.1
2017-Mar-21 01:33N 37°52' W 009°23'9 8.8
2017-Mar-21 00:33N 37°44' W 009°23'10 8.7
2017-Mar-20 23:27N 37°34' W 009°22'57 7.2
2017-Mar-20 15:29N 36°41' W 008°54'16 8.4
2017-Mar-20 13:33N 36°36' W 008°35'43 9.6
2017-Mar-20 09:06N 36°22' W 007°45'5 9.9
2017-Mar-20 08:33N 36°20' W 007°39'10 9.8
2017-Mar-20 07:33N 36°17' W 007°27'1110.5
2017-Mar-20 06:33N 36°14' W 007°15'1010.4
2017-Mar-20 05:33N 36°10' W 007°03'1010.5
2017-Mar-20 04:33N 36°07' W 006°51'5110.1
2017-Mar-19 23:32N 35°58' W 005°49'9 9.0
2017-Mar-19 22:33N 35°58' W 005°38'8 8.4
2017-Mar-19 21:33N 35°60' W 005°28'9 9.3
2017-Mar-19 20:33N 36°02' W 005°17'1010.1
2017-Mar-19 19:33N 36°04' W 005°04'1310.7
2017-Mar-19 18:18N 36°08' W 004°48'810.5
2017-Mar-19 17:33N 36°09' W 004°39'1010.3
2017-Mar-19 16:33N 36°12' W 004°26'1010.4
2017-Mar-19 15:33N 36°15' W 004°14'1110.8
2017-Mar-19 14:33N 36°17' W 004°01'1111.3
2017-Mar-19 13:33N 36°20' W 003°47'1211.8
2017-Mar-19 12:33N 36°23' W 003°33'  
Track history (hours):
 
Tides and Currents Weather Stations Pressure Air Temp Water Temp Dewpoint Dewpoint Depression Visibility Wind Speed Wind Dir Waves Ship Positions

Glory Ocean

Last reported at 2017-Mar-22 00:23 UTC. Time now 2017-Mar-26 17:11 UTC.
Position N 39°25' W 009°50'.

Length 139 m; draft 6.3 m.

Type: Cargo ship. MMSI: 564700000.

Date/timePositionNaut miles runAvg speedWind from/ knotsBaromVisibWave heightAir tempDewpointWater temp
2017-Mar-22 00:23N 39°25' W 009°50'8 9.5
2017-Mar-21 23:33N 39°17' W 009°50'9 9.1
2017-Mar-21 22:33N 39°08' W 009°51'9 9.1
2017-Mar-21 21:33N 38°59' W 009°51'9 9.1
2017-Mar-21 20:33N 38°50' W 009°51'9 9.2
2017-Mar-21 19:33N 38°40' W 009°51'8 7.9
2017-Mar-21 18:33N 38°37' W 009°41'9 9.1
2017-Mar-21 17:33N 38°36' W 009°30'9 9.0
2017-Mar-21 16:33N 38°40' W 009°19'6 1.8
2017-Mar-21 13:04N 38°41' W 009°11'0 0.0
2017-Mar-21 11:19N 38°41' W 009°11'0 0.1
2017-Mar-21 09:31N 38°41' W 009°11'0 0.1
2017-Mar-21 08:31N 38°41' W 009°11'4 3.9
2017-Mar-21 07:33N 38°41' W 009°16'8 8.5
2017-Mar-21 06:33N 38°36' W 009°24'9 9.0
2017-Mar-21 05:33N 38°27' W 009°24'7 7.1
2017-Mar-21 04:33N 38°20' W 009°24'9 9.0
2017-Mar-21 03:33N 38°11' W 009°24'9 9.3
2017-Mar-21 02:33N 38°01' W 009°23'9 9.1
2017-Mar-21 01:33N 37°52' W 009°23'9 8.8
2017-Mar-21 00:33N 37°44' W 009°23'10 8.7
2017-Mar-20 23:27N 37°34' W 009°22'57 7.2
2017-Mar-20 15:29N 36°41' W 008°54'16 8.4
2017-Mar-20 13:33N 36°36' W 008°35'43 9.6
2017-Mar-20 09:06N 36°22' W 007°45'5 9.9
2017-Mar-20 08:33N 36°20' W 007°39'10 9.8
2017-Mar-20 07:33N 36°17' W 007°27'1110.5
2017-Mar-20 06:33N 36°14' W 007°15'1010.4
2017-Mar-20 05:33N 36°10' W 007°03'1010.5
2017-Mar-20 04:33N 36°07' W 006°51'5110.1
2017-Mar-19 23:32N 35°58' W 005°49'9 9.0
2017-Mar-19 22:33N 35°58' W 005°38'8 8.4
2017-Mar-19 21:33N 35°60' W 005°28'9 9.3
2017-Mar-19 20:33N 36°02' W 005°17'1010.1
2017-Mar-19 19:33N 36°04' W 005°04'1310.7
2017-Mar-19 18:18N 36°08' W 004°48'810.5
2017-Mar-19 17:33N 36°09' W 004°39'1010.3
2017-Mar-19 16:33N 36°12' W 004°26'1010.4
2017-Mar-19 15:33N 36°15' W 004°14'1110.8
2017-Mar-19 14:33N 36°17' W 004°01'1111.3
2017-Mar-19 13:33N 36°20' W 003°47'1211.8
2017-Mar-19 12:33N 36°23' W 003°33'  

Dump ship's entire track history